sensor_id;sensor_type;location;lat;lon;timestamp;pressure;altitude;pressure_sealevel;temperature
5571;BMP180;2808;51.240;6.794;2022-08-01T00:02:00;101156.00;;;21.10
5571;BMP180;2808;51.240;6.794;2022-08-01T00:04:28;101152.00;;;21.10
5571;BMP180;2808;51.240;6.794;2022-08-01T00:06:55;101160.00;;;21.00
5571;BMP180;2808;51.240;6.794;2022-08-01T00:09:23;101152.00;;;21.10
5571;BMP180;2808;51.240;6.794;2022-08-01T00:11:53;101159.00;;;21.00
5571;BMP180;2808;51.240;6.794;2022-08-01T00:14:21;101151.00;;;21.00
5571;BMP180;2808;51.240;6.794;2022-08-01T00:16:48;101153.00;;;20.90
5571;BMP180;2808;51.240;6.794;2022-08-01T00:19:18;101152.00;;;20.90
5571;BMP180;2808;51.240;6.794;2022-08-01T00:21:47;101157.00;;;21.00
5571;BMP180;2808;51.240;6.794;2022-08-01T00:24:17;101161.00;;;21.00
5571;BMP180;2808;51.240;6.794;2022-08-01T00:26:48;101156.00;;;21.00
5571;BMP180;2808;51.240;6.794;2022-08-01T00:29:17;101157.00;;;21.00
5571;BMP180;2808;51.240;6.794;2022-08-01T00:31:47;101146.00;;;21.00
5571;BMP180;2808;51.240;6.794;2022-08-01T00:34:14;101151.00;;;21.00
5571;BMP180;2808;51.240;6.794;2022-08-01T00:36:42;101152.00;;;21.00
5571;BMP180;2808;51.240;6.794;2022-08-01T00:39:10;101158.00;;;21.00
5571;BMP180;2808;51.240;6.794;2022-08-01T00:41:37;101146.00;;;21.00
5571;BMP180;2808;51.240;6.794;2022-08-01T00:44:06;101155.00;;;20.90
5571;BMP180;2808;51.240;6.794;2022-08-01T00:46:35;101154.00;;;20.90
5571;BMP180;2808;51.240;6.794;2022-08-01T00:49:06;101152.00;;;20.90
5571;BMP180;2808;51.240;6.794;2022-08-01T00:51:34;101147.00;;;20.90
5571;BMP180;2808;51.240;6.794;2022-08-01T00:54:03;101146.00;;;20.90
5571;BMP180;2808;51.240;6.794;2022-08-01T00:56:30;101143.00;;;20.90
5571;BMP180;2808;51.240;6.794;2022-08-01T00:58:58;101142.00;;;20.80
5571;BMP180;2808;51.240;6.794;2022-08-01T01:01:26;101143.00;;;20.80
5571;BMP180;2808;51.240;6.794;2022-08-01T01:03:55;101136.00;;;20.80
5571;BMP180;2808;51.240;6.794;2022-08-01T01:06:28;101141.00;;;20.80
5571;BMP180;2808;51.240;6.794;2022-08-01T01:09:10;101135.00;;;20.80
5571;BMP180;2808;51.240;6.794;2022-08-01T01:11:44;101141.00;;;20.80
5571;BMP180;2808;51.240;6.794;2022-08-01T01:14:20;101141.00;;;20.70
5571;BMP180;2808;51.240;6.794;2022-08-01T01:16:50;101141.00;;;20.70
5571;BMP180;2808;51.240;6.794;2022-08-01T01:19:23;101146.00;;;20.70
5571;BMP180;2808;51.240;6.794;2022-08-01T01:22:08;101140.00;;;20.70
5571;BMP180;2808;51.240;6.794;2022-08-01T01:24:50;101141.00;;;20.70
5571;BMP180;2808;51.240;6.794;2022-08-01T01:27:32;101147.00;;;20.70
5571;BMP180;2808;51.240;6.794;2022-08-01T01:30:04;101138.00;;;20.70
5571;BMP180;2808;51.240;6.794;2022-08-01T01:32:35;101153.00;;;20.80
5571;BMP180;2808;51.240;6.794;2022-08-01T01:35:07;101146.00;;;20.80
5571;BMP180;2808;51.240;6.794;2022-08-01T01:37:39;101147.00;;;20.80
5571;BMP180;2808;51.240;6.794;2022-08-01T01:40:09;101151.00;;;20.80
5571;BMP180;2808;51.240;6.794;2022-08-01T01:42:37;101147.00;;;20.80
5571;BMP180;2808;51.240;6.794;2022-08-01T01:45:08;101158.00;;;20.80
5571;BMP180;2808;51.240;6.794;2022-08-01T01:47:36;101150.00;;;20.80
5571;BMP180;2808;51.240;6.794;2022-08-01T01:50:06;101154.00;;;20.80
5571;BMP180;2808;51.240;6.794;2022-08-01T01:52:35;101154.00;;;20.80
5571;BMP180;2808;51.240;6.794;2022-08-01T01:55:06;101157.00;;;20.80
5571;BMP180;2808;51.240;6.794;2022-08-01T01:57:39;101161.00;;;20.70
5571;BMP180;2808;51.240;6.794;2022-08-01T02:00:11;101148.00;;;20.70
5571;BMP180;2808;51.240;6.794;2022-08-01T02:02:43;101148.00;;;20.70
5571;BMP180;2808;51.240;6.794;2022-08-01T02:05:11;101160.00;;;20.70
5571;BMP180;2808;51.240;6.794;2022-08-01T02:07:41;101145.00;;;20.70
5571;BMP180;2808;51.240;6.794;2022-08-01T02:10:26;101138.00;;;20.70
5571;BMP180;2808;51.240;6.794;2022-08-01T02:13:00;101141.00;;;20.70
5571;BMP180;2808;51.240;6.794;2022-08-01T02:15:31;101146.00;;;20.70
5571;BMP180;2808;51.240;6.794;2022-08-01T02:18:01;101143.00;;;20.70
5571;BMP180;2808;51.240;6.794;2022-08-01T02:20:30;101145.00;;;20.70
5571;BMP180;2808;51.240;6.794;2022-08-01T02:23:06;101136.00;;;20.70
5571;BMP180;2808;51.240;6.794;2022-08-01T02:25:38;101142.00;;;20.70
5571;BMP180;2808;51.240;6.794;2022-08-01T02:28:09;101139.00;;;20.60
5571;BMP180;2808;51.240;6.794;2022-08-01T02:30:41;101140.00;;;20.70
5571;BMP180;2808;51.240;6.794;2022-08-01T02:33:14;101141.00;;;20.70
5571;BMP180;2808;51.240;6.794;2022-08-01T02:35:46;101139.00;;;20.70
5571;BMP180;2808;51.240;6.794;2022-08-01T02:38:15;101137.00;;;20.70
5571;BMP180;2808;51.240;6.794;2022-08-01T02:40:46;101132.00;;;20.70
5571;BMP180;2808;51.240;6.794;2022-08-01T02:43:20;101135.00;;;20.70
5571;BMP180;2808;51.240;6.794;2022-08-01T02:45:52;101137.00;;;20.70
5571;BMP180;2808;51.240;6.794;2022-08-01T02:48:22;101132.00;;;20.70
5571;BMP180;2808;51.240;6.794;2022-08-01T02:50:52;101137.00;;;20.70
5571;BMP180;2808;51.240;6.794;2022-08-01T02:53:21;101147.00;;;20.60
5571;BMP180;2808;51.240;6.794;2022-08-01T02:55:51;101137.00;;;20.60
5571;BMP180;2808;51.240;6.794;2022-08-01T02:58:20;101133.00;;;20.60
5571;BMP180;2808;51.240;6.794;2022-08-01T03:00:51;101119.00;;;20.60
5571;BMP180;2808;51.240;6.794;2022-08-01T03:03:19;101133.00;;;20.60
5571;BMP180;2808;51.240;6.794;2022-08-01T03:05:48;101137.00;;;20.60
5571;BMP180;2808;51.240;6.794;2022-08-01T03:08:19;101136.00;;;20.60
5571;BMP180;2808;51.240;6.794;2022-08-01T03:10:48;101139.00;;;20.60
5571;BMP180;2808;51.240;6.794;2022-08-01T03:13:17;101130.00;;;20.60
5571;BMP180;2808;51.240;6.794;2022-08-01T03:15:53;101138.00;;;20.60
5571;BMP180;2808;51.240;6.794;2022-08-01T03:18:22;101133.00;;;20.60
5571;BMP180;2808;51.240;6.794;2022-08-01T03:20:53;101134.00;;;20.60
5571;BMP180;2808;51.240;6.794;2022-08-01T03:23:21;101145.00;;;20.60
5571;BMP180;2808;51.240;6.794;2022-08-01T03:25:50;101142.00;;;20.60
5571;BMP180;2808;51.240;6.794;2022-08-01T03:28:19;101143.00;;;20.70
5571;BMP180;2808;51.240;6.794;2022-08-01T03:30:48;101143.00;;;20.70
5571;BMP180;2808;51.240;6.794;2022-08-01T03:33:17;101150.00;;;20.70
5571;BMP180;2808;51.240;6.794;2022-08-01T03:35:47;101147.00;;;20.70
5571;BMP180;2808;51.240;6.794;2022-08-01T03:38:18;101151.00;;;20.60
5571;BMP180;2808;51.240;6.794;2022-08-01T03:40:49;101149.00;;;20.60
5571;BMP180;2808;51.240;6.794;2022-08-01T03:46:06;101153.00;;;20.60
5571;BMP180;2808;51.240;6.794;2022-08-01T03:48:39;101151.00;;;20.60
5571;BMP180;2808;51.240;6.794;2022-08-01T03:51:08;101151.00;;;20.60
5571;BMP180;2808;51.240;6.794;2022-08-01T03:53:37;101153.00;;;20.60
5571;BMP180;2808;51.240;6.794;2022-08-01T03:56:08;101152.00;;;20.60
5571;BMP180;2808;51.240;6.794;2022-08-01T03:58:38;101147.00;;;20.60
5571;BMP180;2808;51.240;6.794;2022-08-01T04:01:06;101153.00;;;20.60
5571;BMP180;2808;51.240;6.794;2022-08-01T04:03:39;101151.00;;;20.60
5571;BMP180;2808;51.240;6.794;2022-08-01T04:06:07;101149.00;;;20.60
5571;BMP180;2808;51.240;6.794;2022-08-01T04:08:36;101146.00;;;20.60
5571;BMP180;2808;51.240;6.794;2022-08-01T04:11:04;101146.00;;;20.60
5571;BMP180;2808;51.240;6.794;2022-08-01T04:13:33;101149.00;;;20.50
5571;BMP180;2808;51.240;6.794;2022-08-01T04:16:01;101158.00;;;20.50
5571;BMP180;2808;51.240;6.794;2022-08-01T04:18:28;101155.00;;;20.60
5571;BMP180;2808;51.240;6.794;2022-08-01T04:20:57;101152.00;;;20.60
5571;BMP180;2808;51.240;6.794;2022-08-01T04:23:30;101149.00;;;20.60
5571;BMP180;2808;51.240;6.794;2022-08-01T04:26:00;101156.00;;;20.60
5571;BMP180;2808;51.240;6.794;2022-08-01T04:28:33;101157.00;;;20.60
5571;BMP180;2808;51.240;6.794;2022-08-01T04:31:07;101165.00;;;20.60
5571;BMP180;2808;51.240;6.794;2022-08-01T04:33:39;101163.00;;;20.70
5571;BMP180;2808;51.240;6.794;2022-08-01T04:36:11;101163.00;;;20.70
5571;BMP180;2808;51.240;6.794;2022-08-01T04:38:42;101166.00;;;20.70
5571;BMP180;2808;51.240;6.794;2022-08-01T04:41:12;101160.00;;;20.70
5571;BMP180;2808;51.240;6.794;2022-08-01T04:43:40;101164.00;;;20.70
5571;BMP180;2808;51.240;6.794;2022-08-01T04:46:08;101163.00;;;20.70
5571;BMP180;2808;51.240;6.794;2022-08-01T04:48:38;101168.00;;;20.70
5571;BMP180;2808;51.240;6.794;2022-08-01T04:51:14;101174.00;;;20.70
5571;BMP180;2808;51.240;6.794;2022-08-01T04:53:42;101179.00;;;20.60
5571;BMP180;2808;51.240;6.794;2022-08-01T04:56:11;101189.00;;;20.60
5571;BMP180;2808;51.240;6.794;2022-08-01T04:58:39;101183.00;;;20.60
5571;BMP180;2808;51.240;6.794;2022-08-01T05:01:08;101184.00;;;20.60
5571;BMP180;2808;51.240;6.794;2022-08-01T05:03:40;101185.00;;;20.60
5571;BMP180;2808;51.240;6.794;2022-08-01T05:06:08;101188.00;;;20.60
5571;BMP180;2808;51.240;6.794;2022-08-01T05:08:37;101190.00;;;20.60
5571;BMP180;2808;51.240;6.794;2022-08-01T05:11:10;101194.00;;;20.60
5571;BMP180;2808;51.240;6.794;2022-08-01T05:13:50;101186.00;;;20.60
5571;BMP180;2808;51.240;6.794;2022-08-01T05:16:26;101189.00;;;20.50
5571;BMP180;2808;51.240;6.794;2022-08-01T05:18:54;101199.00;;;20.60
5571;BMP180;2808;51.240;6.794;2022-08-01T05:21:24;101202.00;;;20.60
5571;BMP180;2808;51.240;6.794;2022-08-01T05:23:53;101193.00;;;20.60
5571;BMP180;2808;51.240;6.794;2022-08-01T05:26:21;101189.00;;;20.60
5571;BMP180;2808;51.240;6.794;2022-08-01T05:28:51;101191.00;;;20.60
5571;BMP180;2808;51.240;6.794;2022-08-01T05:31:19;101201.00;;;20.60
5571;BMP180;2808;51.240;6.794;2022-08-01T05:33:48;101206.00;;;20.60
5571;BMP180;2808;51.240;6.794;2022-08-01T05:36:18;101205.00;;;20.70
5571;BMP180;2808;51.240;6.794;2022-08-01T05:38:48;101208.00;;;20.80
5571;BMP180;2808;51.240;6.794;2022-08-01T05:41:23;101212.00;;;20.80
5571;BMP180;2808;51.240;6.794;2022-08-01T05:43:50;101209.00;;;20.80
5571;BMP180;2808;51.240;6.794;2022-08-01T05:46:18;101213.00;;;20.80
5571;BMP180;2808;51.240;6.794;2022-08-01T05:48:58;101219.00;;;20.80
5571;BMP180;2808;51.240;6.794;2022-08-01T05:51:29;101218.00;;;20.90
5571;BMP180;2808;51.240;6.794;2022-08-01T05:54:05;101216.00;;;20.90
5571;BMP180;2808;51.240;6.794;2022-08-01T05:56:36;101215.00;;;20.90
5571;BMP180;2808;51.240;6.794;2022-08-01T05:59:05;101212.00;;;21.00
5571;BMP180;2808;51.240;6.794;2022-08-01T06:05:10;101217.00;;;21.10
5571;BMP180;2808;51.240;6.794;2022-08-01T06:08:44;101217.00;;;21.10
5571;BMP180;2808;51.240;6.794;2022-08-01T06:11:26;101221.00;;;21.10
5571;BMP180;2808;51.240;6.794;2022-08-01T07:00:23;101205.00;;;23.40
5571;BMP180;2808;51.240;6.794;2022-08-01T07:02:52;101201.00;;;24.40
5571;BMP180;2808;51.240;6.794;2022-08-01T07:05:22;101199.00;;;25.40
5571;BMP180;2808;51.240;6.794;2022-08-01T07:07:50;101196.00;;;25.60
5571;BMP180;2808;51.240;6.794;2022-08-01T07:10:20;101191.00;;;25.80
5571;BMP180;2808;51.240;6.794;2022-08-01T07:12:49;101198.00;;;25.80
5571;BMP180;2808;51.240;6.794;2022-08-01T07:15:17;101201.00;;;25.80
5571;BMP180;2808;51.240;6.794;2022-08-01T07:17:52;101197.00;;;25.80
5571;BMP180;2808;51.240;6.794;2022-08-01T07:20:23;101198.00;;;25.70
5571;BMP180;2808;51.240;6.794;2022-08-01T07:22:50;101201.00;;;25.60
5571;BMP180;2808;51.240;6.794;2022-08-01T07:25:18;101200.00;;;25.80
5571;BMP180;2808;51.240;6.794;2022-08-01T07:27:51;101202.00;;;25.70
5571;BMP180;2808;51.240;6.794;2022-08-01T07:30:19;101201.00;;;25.60
5571;BMP180;2808;51.240;6.794;2022-08-01T07:32:49;101203.00;;;25.50
5571;BMP180;2808;51.240;6.794;2022-08-01T07:35:17;101213.00;;;25.50
5571;BMP180;2808;51.240;6.794;2022-08-01T07:37:44;101214.00;;;25.50
5571;BMP180;2808;51.240;6.794;2022-08-01T07:40:12;101213.00;;;25.60
5571;BMP180;2808;51.240;6.794;2022-08-01T07:42:40;101213.00;;;25.50
5571;BMP180;2808;51.240;6.794;2022-08-01T07:45:13;101210.00;;;25.50
5571;BMP180;2808;51.240;6.794;2022-08-01T07:47:54;101224.00;;;25.50
5571;BMP180;2808;51.240;6.794;2022-08-01T07:50:49;101225.00;;;25.50
5571;BMP180;2808;51.240;6.794;2022-08-01T07:53:54;101238.00;;;25.40
5571;BMP180;2808;51.240;6.794;2022-08-01T07:56:24;101230.00;;;25.30
5571;BMP180;2808;51.240;6.794;2022-08-01T07:58:54;101232.00;;;25.10
5571;BMP180;2808;51.240;6.794;2022-08-01T08:01:23;101236.00;;;24.80
5571;BMP180;2808;51.240;6.794;2022-08-01T08:06:36;101235.00;;;24.70
5571;BMP180;2808;51.240;6.794;2022-08-01T08:09:30;101236.00;;;24.70
5571;BMP180;2808;51.240;6.794;2022-08-01T08:11:59;101228.00;;;24.90
5571;BMP180;2808;51.240;6.794;2022-08-01T08:15:00;101240.00;;;25.20
5571;BMP180;2808;51.240;6.794;2022-08-01T08:20:32;101236.00;;;26.30
5571;BMP180;2808;51.240;6.794;2022-08-01T08:22:59;101243.00;;;26.80
5571;BMP180;2808;51.240;6.794;2022-08-01T08:25:27;101236.00;;;27.00
5571;BMP180;2808;51.240;6.794;2022-08-01T08:27:56;101242.00;;;27.10
5571;BMP180;2808;51.240;6.794;2022-08-01T08:30:24;101243.00;;;27.00
5571;BMP180;2808;51.240;6.794;2022-08-01T08:33:07;101250.00;;;26.90
5571;BMP180;2808;51.240;6.794;2022-08-01T08:35:42;101244.00;;;26.60
5571;BMP180;2808;51.240;6.794;2022-08-01T08:38:39;101252.00;;;26.40
5571;BMP180;2808;51.240;6.794;2022-08-01T08:41:07;101252.00;;;26.30
5571;BMP180;2808;51.240;6.794;2022-08-01T08:43:46;101251.00;;;26.50
5571;BMP180;2808;51.240;6.794;2022-08-01T08:46:28;101257.00;;;26.80
5571;BMP180;2808;51.240;6.794;2022-08-01T08:48:59;101261.00;;;26.80
5571;BMP180;2808;51.240;6.794;2022-08-01T08:51:39;101260.00;;;26.70
5571;BMP180;2808;51.240;6.794;2022-08-01T08:54:15;101252.00;;;26.30
5571;BMP180;2808;51.240;6.794;2022-08-01T08:56:44;101254.00;;;26.20
5571;BMP180;2808;51.240;6.794;2022-08-01T08:59:15;101262.00;;;26.20
5571;BMP180;2808;51.240;6.794;2022-08-01T09:01:43;101262.00;;;26.50
5571;BMP180;2808;51.240;6.794;2022-08-01T09:04:12;101265.00;;;26.70
5571;BMP180;2808;51.240;6.794;2022-08-01T09:06:45;101262.00;;;27.00
5571;BMP180;2808;51.240;6.794;2022-08-01T09:09:16;101268.00;;;27.00
5571;BMP180;2808;51.240;6.794;2022-08-01T09:11:46;101259.00;;;27.00
5571;BMP180;2808;51.240;6.794;2022-08-01T09:14:18;101265.00;;;26.90
5571;BMP180;2808;51.240;6.794;2022-08-01T09:17:06;101264.00;;;26.70
5571;BMP180;2808;51.240;6.794;2022-08-01T09:20:04;101279.00;;;26.50
5571;BMP180;2808;51.240;6.794;2022-08-01T09:23:04;101273.00;;;26.20
5571;BMP180;2808;51.240;6.794;2022-08-01T09:33:03;101289.00;;;26.30
5571;BMP180;2808;51.240;6.794;2022-08-01T09:42:45;101279.00;;;26.80
5571;BMP180;2808;51.240;6.794;2022-08-01T09:45:50;101276.00;;;27.00
5571;BMP180;2808;51.240;6.794;2022-08-01T09:49:26;101286.00;;;27.10
5571;BMP180;2808;51.240;6.794;2022-08-01T09:56:25;101286.00;;;27.10
5571;BMP180;2808;51.240;6.794;2022-08-01T09:58:52;101284.00;;;27.00
5571;BMP180;2808;51.240;6.794;2022-08-01T10:02:34;101286.00;;;26.90
5571;BMP180;2808;51.240;6.794;2022-08-01T10:05:40;101283.00;;;26.60
5571;BMP180;2808;51.240;6.794;2022-08-01T10:11:17;101279.00;;;26.70
5571;BMP180;2808;51.240;6.794;2022-08-01T10:14:37;101274.00;;;26.80
5571;BMP180;2808;51.240;6.794;2022-08-01T10:17:28;101282.00;;;27.00
5571;BMP180;2808;51.240;6.794;2022-08-01T10:20:06;101271.00;;;27.10
5571;BMP180;2808;51.240;6.794;2022-08-01T10:22:39;101258.00;;;27.30
5571;BMP180;2808;51.240;6.794;2022-08-01T10:25:10;101267.00;;;27.40
5571;BMP180;2808;51.240;6.794;2022-08-01T12:47:02;101248.00;;;27.30
5571;BMP180;2808;51.240;6.794;2022-08-01T13:25:59;101256.00;;;27.20
5571;BMP180;2808;51.240;6.794;2022-08-01T13:32:33;101267.00;;;27.30
5571;BMP180;2808;51.240;6.794;2022-08-01T13:35:04;101262.00;;;27.20
5571;BMP180;2808;51.240;6.794;2022-08-01T13:37:46;101258.00;;;27.10
5571;BMP180;2808;51.240;6.794;2022-08-01T13:41:15;101260.00;;;26.90
5571;BMP180;2808;51.240;6.794;2022-08-01T13:47:09;101264.00;;;26.60
5571;BMP180;2808;51.240;6.794;2022-08-01T13:49:59;101264.00;;;26.70
5571;BMP180;2808;51.240;6.794;2022-08-01T13:52:40;101270.00;;;26.80
5571;BMP180;2808;51.240;6.794;2022-08-01T13:55:08;101262.00;;;26.80
5571;BMP180;2808;51.240;6.794;2022-08-01T13:58:02;101268.00;;;27.00
5571;BMP180;2808;51.240;6.794;2022-08-01T14:00:43;101266.00;;;27.10
5571;BMP180;2808;51.240;6.794;2022-08-01T14:03:38;101274.00;;;27.00
5571;BMP180;2808;51.240;6.794;2022-08-01T14:06:14;101274.00;;;27.00
5571;BMP180;2808;51.240;6.794;2022-08-01T14:09:08;101269.00;;;26.90
5571;BMP180;2808;51.240;6.794;2022-08-01T14:11:44;101267.00;;;26.80
5571;BMP180;2808;51.240;6.794;2022-08-01T14:14:19;101267.00;;;26.90
5571;BMP180;2808;51.240;6.794;2022-08-01T14:21:19;101271.00;;;27.00
5571;BMP180;2808;51.240;6.794;2022-08-01T14:23:51;101268.00;;;27.00
5571;BMP180;2808;51.240;6.794;2022-08-01T14:26:18;101267.00;;;26.80
5571;BMP180;2808;51.240;6.794;2022-08-01T14:28:58;101263.00;;;26.80
5571;BMP180;2808;51.240;6.794;2022-08-01T14:32:03;101268.00;;;26.70
5571;BMP180;2808;51.240;6.794;2022-08-01T14:35:14;101271.00;;;26.40
5571;BMP180;2808;51.240;6.794;2022-08-01T14:38:00;101269.00;;;26.20
5571;BMP180;2808;51.240;6.794;2022-08-01T14:40:37;101266.00;;;26.20
5571;BMP180;2808;51.240;6.794;2022-08-01T14:43:07;101270.00;;;26.10
5571;BMP180;2808;51.240;6.794;2022-08-01T14:45:35;101276.00;;;26.10
5571;BMP180;2808;51.240;6.794;2022-08-01T14:48:20;101270.00;;;26.00
5571;BMP180;2808;51.240;6.794;2022-08-01T14:50:50;101273.00;;;25.90
5571;BMP180;2808;51.240;6.794;2022-08-01T14:53:21;101268.00;;;26.00
5571;BMP180;2808;51.240;6.794;2022-08-01T14:55:51;101270.00;;;26.00
5571;BMP180;2808;51.240;6.794;2022-08-01T15:05:24;101275.00;;;25.90
5571;BMP180;2808;51.240;6.794;2022-08-01T15:08:45;101265.00;;;26.20
5571;BMP180;2808;51.240;6.794;2022-08-01T15:12:13;101278.00;;;26.20
5571;BMP180;2808;51.240;6.794;2022-08-01T15:21:38;101274.00;;;26.00
5571;BMP180;2808;51.240;6.794;2022-08-01T15:24:09;101275.00;;;25.70
5571;BMP180;2808;51.240;6.794;2022-08-01T15:26:38;101282.00;;;25.60
5571;BMP180;2808;51.240;6.794;2022-08-01T15:29:06;101286.00;;;25.60
5571;BMP180;2808;51.240;6.794;2022-08-01T15:31:33;101282.00;;;25.40
5571;BMP180;2808;51.240;6.794;2022-08-01T15:34:01;101295.00;;;25.40
5571;BMP180;2808;51.240;6.794;2022-08-01T15:36:29;101284.00;;;25.30
5571;BMP180;2808;51.240;6.794;2022-08-01T15:39:15;101281.00;;;25.30
5571;BMP180;2808;51.240;6.794;2022-08-01T15:45:21;101294.00;;;25.20
5571;BMP180;2808;51.240;6.794;2022-08-01T15:51:16;101302.00;;;25.10
5571;BMP180;2808;51.240;6.794;2022-08-01T15:54:14;101299.00;;;25.20
5571;BMP180;2808;51.240;6.794;2022-08-01T15:58:48;101306.00;;;25.30
5571;BMP180;2808;51.240;6.794;2022-08-01T15:59:49;101306.00;;;25.50
5571;BMP180;2808;51.240;6.794;2022-08-01T16:02:20;101297.00;;;25.40
5571;BMP180;2808;51.240;6.794;2022-08-01T16:04:48;101299.00;;;25.40
5571;BMP180;2808;51.240;6.794;2022-08-01T16:07:16;101303.00;;;25.40
5571;BMP180;2808;51.240;6.794;2022-08-01T16:09:45;101306.00;;;25.40
5571;BMP180;2808;51.240;6.794;2022-08-01T16:12:15;101290.00;;;25.50
5571;BMP180;2808;51.240;6.794;2022-08-01T16:15:10;101301.00;;;25.40
5571;BMP180;2808;51.240;6.794;2022-08-01T16:20:29;101301.00;;;25.40
5571;BMP180;2808;51.240;6.794;2022-08-01T16:22:57;101297.00;;;25.30
5571;BMP180;2808;51.240;6.794;2022-08-01T16:25:24;101306.00;;;25.20
5571;BMP180;2808;51.240;6.794;2022-08-01T16:27:54;101300.00;;;25.10
5571;BMP180;2808;51.240;6.794;2022-08-01T16:30:29;101297.00;;;25.10
5571;BMP180;2808;51.240;6.794;2022-08-01T16:36:08;101302.00;;;25.30
5571;BMP180;2808;51.240;6.794;2022-08-01T16:38:36;101288.00;;;25.30
5571;BMP180;2808;51.240;6.794;2022-08-01T16:41:04;101302.00;;;25.40
5571;BMP180;2808;51.240;6.794;2022-08-01T16:43:31;101304.00;;;25.30
5571;BMP180;2808;51.240;6.794;2022-08-01T16:45:59;101299.00;;;25.40
5571;BMP180;2808;51.240;6.794;2022-08-01T16:48:29;101296.00;;;25.50
5571;BMP180;2808;51.240;6.794;2022-08-01T16:50:58;101291.00;;;25.60
5571;BMP180;2808;51.240;6.794;2022-08-01T16:53:35;101292.00;;;25.70
5571;BMP180;2808;51.240;6.794;2022-08-01T16:56:42;101296.00;;;25.70
5571;BMP180;2808;51.240;6.794;2022-08-01T17:03:26;101305.00;;;25.60
5571;BMP180;2808;51.240;6.794;2022-08-01T17:06:33;101297.00;;;25.60
5571;BMP180;2808;51.240;6.794;2022-08-01T17:12:51;101301.00;;;25.60
5571;BMP180;2808;51.240;6.794;2022-08-01T17:32:24;101313.00;;;25.20
5571;BMP180;2808;51.240;6.794;2022-08-01T17:35:36;101310.00;;;25.20
5571;BMP180;2808;51.240;6.794;2022-08-01T17:38:43;101307.00;;;24.90
5571;BMP180;2808;51.240;6.794;2022-08-01T17:42:07;101307.00;;;24.70
5571;BMP180;2808;51.240;6.794;2022-08-01T18:46:00;101329.00;;;23.00
5571;BMP180;2808;51.240;6.794;2022-08-01T18:49:09;101336.00;;;23.00
5571;BMP180;2808;51.240;6.794;2022-08-01T18:55:48;101345.00;;;22.90
5571;BMP180;2808;51.240;6.794;2022-08-01T18:59:05;101341.00;;;22.90
5571;BMP180;2808;51.240;6.794;2022-08-01T19:01:57;101341.00;;;22.80
5571;BMP180;2808;51.240;6.794;2022-08-01T19:12:10;101364.00;;;22.50
5571;BMP180;2808;51.240;6.794;2022-08-01T19:18:39;101343.00;;;22.40
5571;BMP180;2808;51.240;6.794;2022-08-01T19:21:34;101352.00;;;22.30
5571;BMP180;2808;51.240;6.794;2022-08-01T19:25:08;101375.00;;;22.30
5571;BMP180;2808;51.240;6.794;2022-08-01T19:31:17;101383.00;;;22.20
5571;BMP180;2808;51.240;6.794;2022-08-01T19:36:35;101387.00;;;22.20
5571;BMP180;2808;51.240;6.794;2022-08-01T19:40:33;101382.00;;;22.10
5571;BMP180;2808;51.240;6.794;2022-08-01T19:44:47;101382.00;;;22.00
5571;BMP180;2808;51.240;6.794;2022-08-01T19:56:44;101391.00;;;21.80
5571;BMP180;2808;51.240;6.794;2022-08-01T19:59:19;101397.00;;;21.70
5571;BMP180;2808;51.240;6.794;2022-08-01T20:02:24;101400.00;;;21.70
5571;BMP180;2808;51.240;6.794;2022-08-01T20:11:59;101413.00;;;21.60
5571;BMP180;2808;51.240;6.794;2022-08-01T20:14:44;101409.00;;;21.60
5571;BMP180;2808;51.240;6.794;2022-08-01T20:17:15;101404.00;;;21.60
5571;BMP180;2808;51.240;6.794;2022-08-01T20:20:06;101417.00;;;21.50
5571;BMP180;2808;51.240;6.794;2022-08-01T20:22:39;101417.00;;;21.50
5571;BMP180;2808;51.240;6.794;2022-08-01T20:25:12;101420.00;;;21.50
5571;BMP180;2808;51.240;6.794;2022-08-01T20:27:46;101418.00;;;21.50
5571;BMP180;2808;51.240;6.794;2022-08-01T20:30:16;101415.00;;;21.40
5571;BMP180;2808;51.240;6.794;2022-08-01T20:32:45;101422.00;;;21.40
5571;BMP180;2808;51.240;6.794;2022-08-01T20:35:22;101422.00;;;21.30
5571;BMP180;2808;51.240;6.794;2022-08-01T20:38:02;101421.00;;;21.30
5571;BMP180;2808;51.240;6.794;2022-08-01T20:40:31;101431.00;;;21.30
5571;BMP180;2808;51.240;6.794;2022-08-01T20:43:07;101419.00;;;21.20
5571;BMP180;2808;51.240;6.794;2022-08-01T20:45:36;101419.00;;;21.10
5571;BMP180;2808;51.240;6.794;2022-08-01T20:48:14;101427.00;;;21.10
5571;BMP180;2808;51.240;6.794;2022-08-01T20:50:47;101421.00;;;21.00
5571;BMP180;2808;51.240;6.794;2022-08-01T20:53:33;101422.00;;;21.00
5571;BMP180;2808;51.240;6.794;2022-08-01T20:56:07;101409.00;;;21.00
5571;BMP180;2808;51.240;6.794;2022-08-01T20:58:48;101421.00;;;21.00
5571;BMP180;2808;51.240;6.794;2022-08-01T21:01:27;101413.00;;;21.00
5571;BMP180;2808;51.240;6.794;2022-08-01T21:04:17;101415.00;;;21.00
5571;BMP180;2808;51.240;6.794;2022-08-01T21:06:53;101420.00;;;21.00
5571;BMP180;2808;51.240;6.794;2022-08-01T21:09:23;101419.00;;;21.00
5571;BMP180;2808;51.240;6.794;2022-08-01T21:12:00;101418.00;;;20.90
5571;BMP180;2808;51.240;6.794;2022-08-01T21:14:40;101415.00;;;20.90
5571;BMP180;2808;51.240;6.794;2022-08-01T21:17:17;101419.00;;;20.80
5571;BMP180;2808;51.240;6.794;2022-08-01T21:19:50;101414.00;;;20.80
5571;BMP180;2808;51.240;6.794;2022-08-01T21:22:21;101420.00;;;20.80
5571;BMP180;2808;51.240;6.794;2022-08-01T21:24:53;101416.00;;;20.70
5571;BMP180;2808;51.240;6.794;2022-08-01T21:27:25;101406.00;;;20.70
5571;BMP180;2808;51.240;6.794;2022-08-01T21:29:55;101411.00;;;20.70
5571;BMP180;2808;51.240;6.794;2022-08-01T21:32:23;101411.00;;;20.70
5571;BMP180;2808;51.240;6.794;2022-08-01T21:34:55;101416.00;;;20.60
5571;BMP180;2808;51.240;6.794;2022-08-01T21:37:23;101417.00;;;20.60
5571;BMP180;2808;51.240;6.794;2022-08-01T21:39:51;101411.00;;;20.60
5571;BMP180;2808;51.240;6.794;2022-08-01T21:42:19;101415.00;;;20.50
5571;BMP180;2808;51.240;6.794;2022-08-01T21:44:46;101412.00;;;20.50
5571;BMP180;2808;51.240;6.794;2022-08-01T21:47:20;101421.00;;;20.50
5571;BMP180;2808;51.240;6.794;2022-08-01T21:49:49;101411.00;;;20.50
5571;BMP180;2808;51.240;6.794;2022-08-01T21:52:17;101422.00;;;20.40
5571;BMP180;2808;51.240;6.794;2022-08-01T21:54:59;101416.00;;;20.40
5571;BMP180;2808;51.240;6.794;2022-08-01T21:57:57;101420.00;;;20.40
5571;BMP180;2808;51.240;6.794;2022-08-01T22:00:26;101411.00;;;20.30
5571;BMP180;2808;51.240;6.794;2022-08-01T22:03:00;101426.00;;;20.30
5571;BMP180;2808;51.240;6.794;2022-08-01T22:05:36;101420.00;;;20.20
5571;BMP180;2808;51.240;6.794;2022-08-01T22:08:08;101419.00;;;20.20
5571;BMP180;2808;51.240;6.794;2022-08-01T22:10:41;101419.00;;;20.20
5571;BMP180;2808;51.240;6.794;2022-08-01T22:13:09;101426.00;;;20.20